Time;durP1;ratioP1;P1;durP2;ratioP2;P2;SDS_P1;SDS_P2;PMS_P1;PMS_P2;Temp;Humidity;BMP_temperature;BMP_pressure;BME280_temperature;BME280_humidity;BME280_pressure;Samples;Min_cycle;Max_cycle;Signal;HPM_P1;HPM_P2
2021/06/12 00:00:26;;;;;;;34.47;24.25;;;;;;;;;;1492917;39;20028;-60
2021/06/12 00:01:27;;;;;;;34.50;24.55;;;;;;;;;;1492970;39;20311;-61
2021/06/12 00:02:28;;;;;;;32.60;23.98;;;;;;;;;;1493160;39;20037;-60
2021/06/12 00:03:29;;;;;;;32.25;25.08;;;;;;;;;;1492888;39;20300;-59
2021/06/12 00:04:30;;;;;;;32.95;24.17;;;;;;;;;;1492909;39;20116;-60
2021/06/12 00:05:32;;;;;;;32.40;24.80;;;;;;;;;;1492837;39;20024;-60
2021/06/12 00:06:33;;;;;;;36.10;24.13;;;;;;;;;;1492853;39;20384;-60
2021/06/12 00:07:34;;;;;;;29.33;24.23;;;;;;;;;;1492931;39;20122;-59
2021/06/12 00:08:35;;;;;;;31.83;23.80;;;;;;;;;;1493074;39;20106;-61
2021/06/12 00:09:38;;;;;;;34.13;24.08;;;;;;;;;;1492906;39;20327;-61
2021/06/12 00:10:39;;;;;;;34.72;25.38;;;;;;;;;;1492966;39;20394;-60
2021/06/12 00:11:41;;;;;;;37.80;25.55;;;;;;;;;;1493075;39;20032;-61
2021/06/12 00:12:42;;;;;;;35.75;25.73;;;;;;;;;;1492887;39;20058;-60
2021/06/12 00:13:43;;;;;;;33.10;24.80;;;;;;;;;;1493108;39;20055;-59
2021/06/12 00:14:44;;;;;;;35.90;24.85;;;;;;;;;;1492831;39;20356;-60
2021/06/12 00:15:46;;;;;;;33.95;24.85;;;;;;;;;;1492970;39;20119;-60
2021/06/12 00:16:47;;;;;;;35.65;23.95;;;;;;;;;;1493048;39;20023;-61
2021/06/12 00:17:48;;;;;;;32.42;25.25;;;;;;;;;;1492978;39;20024;-60
2021/06/12 00:18:49;;;;;;;30.55;24.13;;;;;;;;;;1492977;39;20040;-59
2021/06/12 00:19:50;;;;;;;31.33;23.45;;;;;;;;;;1492822;39;20303;-59
2021/06/12 00:20:53;;;;;;;35.53;25.00;;;;;;;;;;1493106;39;20035;-60
2021/06/12 00:21:54;;;;;;;34.88;24.33;;;;;;;;;;1493070;39;20113;-60
2021/06/12 00:22:56;;;;;;;35.03;24.55;;;;;;;;;;1492595;39;20127;-59
2021/06/12 00:23:57;;;;;;;33.13;23.67;;;;;;;;;;1492701;39;20044;-59
2021/06/12 00:24:59;;;;;;;36.45;25.98;;;;;;;;;;1492814;39;20384;-60
2021/06/12 00:26:01;;;;;;;32.13;24.30;;;;;;;;;;1493063;39;20038;-59
2021/06/12 00:27:02;;;;;;;35.10;22.98;;;;;;;;;;1492820;39;20138;-59
2021/06/12 00:28:04;;;;;;;32.78;24.08;;;;;;;;;;1492919;39;20299;-59
2021/06/12 00:29:05;;;;;;;32.97;23.38;;;;;;;;;;1493018;39;20031;-59
2021/06/12 00:30:08;;;;;;;34.40;23.40;;;;;;;;;;1492815;39;20082;-59
2021/06/12 00:31:09;;;;;;;30.10;23.13;;;;;;;;;;1492977;39;20028;-59
2021/06/12 00:32:11;;;;;;;30.15;22.92;;;;;;;;;;1493090;39;20113;-60
2021/06/12 00:33:12;;;;;;;29.90;23.20;;;;;;;;;;1492841;39;20034;-60
2021/06/12 00:34:13;;;;;;;29.85;22.73;;;;;;;;;;1492797;39;20032;-59
2021/06/12 00:35:14;;;;;;;29.83;21.75;;;;;;;;;;1492786;39;20036;-59
2021/06/12 00:36:16;;;;;;;32.45;22.17;;;;;;;;;;1492996;39;20028;-59
2021/06/12 00:37:17;;;;;;;34.22;22.98;;;;;;;;;;1492980;39;20024;-60
2021/06/12 00:38:18;;;;;;;32.42;22.42;;;;;;;;;;1492840;39;20284;-60
2021/06/12 00:39:19;;;;;;;30.40;22.20;;;;;;;;;;1492915;39;20054;-60
2021/06/12 00:40:22;;;;;;;34.47;23.30;;;;;;;;;;1492834;39;20445;-60
2021/06/12 00:41:23;;;;;;;33.60;22.00;;;;;;;;;;1492802;39;20023;-61
2021/06/12 00:42:24;;;;;;;30.85;22.48;;;;;;;;;;1492802;39;20030;-61
2021/06/12 00:43:25;;;;;;;34.20;21.73;;;;;;;;;;1492936;39;20120;-60
2021/06/12 00:44:27;;;;;;;32.92;22.20;;;;;;;;;;1492897;39;20043;-57
2021/06/12 00:45:29;;;;;;;28.25;22.45;;;;;;;;;;1492965;39;20028;-57
2021/06/12 00:46:30;;;;;;;28.05;21.80;;;;;;;;;;1492832;39;20032;-57
2021/06/12 00:47:31;;;;;;;30.42;22.85;;;;;;;;;;1492916;39;20031;-57
2021/06/12 00:48:33;;;;;;;35.03;22.73;;;;;;;;;;1492751;39;20042;-57
2021/06/12 00:49:33;;;;;;;33.40;22.15;;;;;;;;;;1492874;39;20028;-57
2021/06/12 00:50:35;;;;;;;30.77;22.42;;;;;;;;;;1493008;39;20034;-57
2021/06/12 00:51:35;;;;;;;31.95;22.35;;;;;;;;;;1492894;39;20072;-57
2021/06/12 00:52:38;;;;;;;31.58;23.00;;;;;;;;;;1492947;39;20290;-57
2021/06/12 00:53:40;;;;;;;34.67;22.35;;;;;;;;;;1492767;39;20071;-57
2021/06/12 00:54:42;;;;;;;32.22;22.85;;;;;;;;;;1492788;39;20028;-57
2021/06/12 00:55:44;;;;;;;33.40;21.90;;;;;;;;;;1492784;39;20307;-57
2021/06/12 00:56:46;;;;;;;30.85;22.70;;;;;;;;;;1492777;39;20411;-57
2021/06/12 00:57:47;;;;;;;34.42;23.10;;;;;;;;;;1492781;39;20279;-57
2021/06/12 00:58:51;;;;;;;27.60;20.88;;;;;;;;;;1492686;39;20028;-57
2021/06/12 00:59:52;;;;;;;32.17;21.30;;;;;;;;;;1492774;39;20276;-57
2021/06/12 01:00:54;;;;;;;30.48;21.63;;;;;;;;;;1492761;39;20039;-57
2021/06/12 01:01:54;;;;;;;29.17;20.77;;;;;;;;;;1492922;39;20028;-57
2021/06/12 01:02:56;;;;;;;29.85;20.67;;;;;;;;;;1492724;39;20288;-57
2021/06/12 01:03:58;;;;;;;26.83;19.92;;;;;;;;;;1492860;39;20028;-57
2021/06/12 01:04:59;;;;;;;27.85;20.95;;;;;;;;;;1492749;39;20043;-57
2021/06/12 01:06:00;;;;;;;30.67;20.38;;;;;;;;;;1492899;39;20035;-57
2021/06/12 01:07:01;;;;;;;32.30;20.63;;;;;;;;;;1492970;39;20046;-57
2021/06/12 01:08:02;;;;;;;28.27;20.55;;;;;;;;;;1492803;39;20024;-57
2021/06/12 01:09:05;;;;;;;29.33;19.77;;;;;;;;;;1492706;39;20395;-57
2021/06/12 01:10:10;;;;;;;29.90;19.85;;;;;;;;;;1492682;39;20038;-57
2021/06/12 01:11:13;;;;;;;29.92;20.38;;;;;;;;;;1492849;39;20032;-57
2021/06/12 01:12:21;;;;;;;28.83;19.13;;;;;;;;;;1492698;39;20027;-57
2021/06/12 01:13:31;;;;;;;29.65;20.23;;;;;;;;;;1492765;39;20035;-57
2021/06/12 01:14:35;;;;;;;31.67;20.83;;;;;;;;;;1492717;39;20028;-57
2021/06/12 01:15:49;;;;;;;28.05;20.23;;;;;;;;;;1492745;39;20049;-57
2021/06/12 01:16:55;;;;;;;27.60;20.20;;;;;;;;;;1492719;39;20032;-57
2021/06/12 01:18:01;;;;;;;26.83;19.52;;;;;;;;;;1492718;39;20388;-57
2021/06/12 01:19:12;;;;;;;29.60;19.67;;;;;;;;;;1492597;39;20319;-57
2021/06/12 01:20:48;;;;;;;27.70;19.70;;;;;;;;;;1492720;39;20119;-58
2021/06/12 01:21:53;;;;;;;26.40;19.08;;;;;;;;;;1492995;39;20036;-57
2021/06/12 01:23:13;;;;;;;28.58;19.75;;;;;;;;;;1492695;39;20039;-57
2021/06/12 01:24:47;;;;;;;25.35;19.35;;;;;;;;;;1492741;39;20389;-57
2021/06/12 01:25:56;;;;;;;26.35;18.90;;;;;;;;;;1492963;39;20032;-57
2021/06/12 01:27:37;;;;;;;24.77;18.33;;;;;;;;;;1492835;39;20028;-57
2021/06/12 01:28:58;;;;;;;26.77;19.30;;;;;;;;;;1492669;39;20645;-57
2021/06/12 01:30:08;;;;;;;26.20;18.65;;;;;;;;;;1492838;39;20036;-57
2021/06/12 01:31:11;;;;;;;24.92;17.73;;;;;;;;;;1492694;39;20043;-57
2021/06/12 01:32:15;;;;;;;25.75;17.80;;;;;;;;;;1492684;39;20044;-57
2021/06/12 01:33:16;;;;;;;29.48;19.15;;;;;;;;;;1492879;39;20112;-57
2021/06/12 01:34:20;;;;;;;26.75;19.15;;;;;;;;;;1492737;39;20040;-57
2021/06/12 01:35:28;;;;;;;25.48;17.85;;;;;;;;;;1493287;39;20384;-57
2021/06/12 01:36:31;;;;;;;30.10;18.15;;;;;;;;;;1493285;39;20028;-57
2021/06/12 01:37:35;;;;;;;25.77;18.30;;;;;;;;;;1493217;39;20406;-57
2021/06/12 01:38:43;;;;;;;26.77;18.45;;;;;;;;;;1493481;39;20104;-57
2021/06/12 01:39:45;;;;;;;26.23;19.00;;;;;;;;;;1493529;39;20111;-57
2021/06/12 01:40:49;;;;;;;24.42;17.83;;;;;;;;;;1493232;39;20035;-57
2021/06/12 01:41:53;;;;;;;28.25;19.48;;;;;;;;;;1493477;39;20032;-57
2021/06/12 01:42:56;;;;;;;22.92;17.75;;;;;;;;;;1493374;39;20038;-57
2021/06/12 01:43:58;;;;;;;26.65;18.67;;;;;;;;;;1493201;39;20031;-57
2021/06/12 01:45:01;;;;;;;23.30;17.33;;;;;;;;;;1493262;39;20040;-57
2021/06/12 01:46:06;;;;;;;26.58;17.98;;;;;;;;;;1493398;39;20032;-57
2021/06/12 01:47:09;;;;;;;24.33;17.77;;;;;;;;;;1493337;39;20136;-56
2021/06/12 01:48:11;;;;;;;28.10;17.95;;;;;;;;;;1493246;39;20032;-57
2021/06/12 01:49:15;;;;;;;28.75;17.48;;;;;;;;;;1493392;39;20104;-57
2021/06/12 01:50:17;;;;;;;26.58;18.13;;;;;;;;;;1493333;39;20287;-57
2021/06/12 01:51:20;;;;;;;23.15;17.35;;;;;;;;;;1493276;39;20403;-57
2021/06/12 01:52:22;;;;;;;22.20;16.33;;;;;;;;;;1493213;39;20032;-57
2021/06/12 01:53:30;;;;;;;25.92;17.13;;;;;;;;;;1493459;39;20028;-56
2021/06/12 01:54:32;;;;;;;24.33;16.85;;;;;;;;;;1493312;39;20443;-57
2021/06/12 01:55:35;;;;;;;23.02;16.30;;;;;;;;;;1493287;39;20321;-57
2021/06/12 01:56:38;;;;;;;25.00;16.65;;;;;;;;;;1493546;39;20028;-57
2021/06/12 01:57:41;;;;;;;24.90;16.35;;;;;;;;;;1493225;39;20335;-57
2021/06/12 01:58:43;;;;;;;26.77;17.77;;;;;;;;;;1493414;39;20135;-57
2021/06/12 01:59:48;;;;;;;24.27;16.50;;;;;;;;;;1493286;39;20035;-57
2021/06/12 02:00:49;;;;;;;24.20;16.85;;;;;;;;;;1493427;39;20036;-57
2021/06/12 02:01:54;;;;;;;21.48;15.75;;;;;;;;;;1493233;39;20028;-57
2021/06/12 02:02:57;;;;;;;19.55;16.15;;;;;;;;;;1493302;39;20431;-57
2021/06/12 02:04:00;;;;;;;20.58;15.93;;;;;;;;;;1493312;39;20035;-57
2021/06/12 02:05:01;;;;;;;23.50;16.45;;;;;;;;;;1493240;39;20349;-57
2021/06/12 02:06:04;;;;;;;22.10;16.88;;;;;;;;;;1493175;39;20410;-57
2021/06/12 02:07:06;;;;;;;21.45;15.18;;;;;;;;;;1493435;39;20024;-57
2021/06/12 02:08:09;;;;;;;24.35;15.68;;;;;;;;;;1493224;39;20276;-57
2021/06/12 02:09:11;;;;;;;22.67;15.38;;;;;;;;;;1493165;39;20040;-57
2021/06/12 02:10:13;;;;;;;22.88;15.68;;;;;;;;;;1493182;39;20387;-57
2021/06/12 02:11:16;;;;;;;19.92;15.13;;;;;;;;;;1493228;39;20269;-57
2021/06/12 02:12:19;;;;;;;21.35;15.35;;;;;;;;;;1493198;39;20040;-57
2021/06/12 02:13:23;;;;;;;21.42;15.82;;;;;;;;;;1493327;39;20028;-57
2021/06/12 02:14:25;;;;;;;24.77;14.80;;;;;;;;;;1493202;39;20028;-57
2021/06/12 02:15:28;;;;;;;26.30;15.15;;;;;;;;;;1493221;39;20303;-57
2021/06/12 02:16:30;;;;;;;21.30;15.25;;;;;;;;;;1493184;39;20399;-57
2021/06/12 02:17:33;;;;;;;23.13;15.38;;;;;;;;;;1493198;39;20024;-57
2021/06/12 02:18:36;;;;;;;22.92;15.98;;;;;;;;;;1493272;39;20066;-57
2021/06/12 02:19:39;;;;;;;24.40;15.82;;;;;;;;;;1493333;39;20043;-57
2021/06/12 02:20:43;;;;;;;22.05;14.82;;;;;;;;;;1493193;39;20032;-57
2021/06/12 02:21:44;;;;;;;21.55;14.48;;;;;;;;;;1493169;39;20036;-57
2021/06/12 02:22:50;;;;;;;19.88;15.45;;;;;;;;;;1493202;39;20455;-57
2021/06/12 02:23:52;;;;;;;20.77;15.35;;;;;;;;;;1493303;39;20028;-57
2021/06/12 02:24:54;;;;;;;19.92;15.40;;;;;;;;;;1493231;39;20028;-57
2021/06/12 02:25:55;;;;;;;19.95;15.30;;;;;;;;;;1493221;39;20307;-57
2021/06/12 02:26:57;;;;;;;18.90;15.10;;;;;;;;;;1493367;39;20126;-57
2021/06/12 02:28:01;;;;;;;19.17;14.38;;;;;;;;;;1493327;39;20024;-57
2021/06/12 02:29:03;;;;;;;20.55;14.45;;;;;;;;;;1493340;39;20039;-57
2021/06/12 02:30:05;;;;;;;21.52;15.48;;;;;;;;;;1493227;39;20027;-58
2021/06/12 02:31:09;;;;;;;22.45;15.32;;;;;;;;;;1493346;39;20031;-57
2021/06/12 02:32:13;;;;;;;20.15;14.63;;;;;;;;;;1493229;39;20395;-57
2021/06/12 02:33:18;;;;;;;20.45;15.20;;;;;;;;;;1493166;39;20120;-57
2021/06/12 02:34:19;;;;;;;20.13;14.95;;;;;;;;;;1493558;39;20036;-57
2021/06/12 02:35:20;;;;;;;21.88;14.82;;;;;;;;;;1493276;39;20360;-60
2021/06/12 02:36:21;;;;;;;20.48;14.85;;;;;;;;;;1493313;39;20028;-60
2021/06/12 02:37:22;;;;;;;22.25;15.45;;;;;;;;;;1493152;39;20322;-59
2021/06/12 02:38:23;;;;;;;19.35;14.05;;;;;;;;;;1493100;39;20035;-60
2021/06/12 02:39:25;;;;;;;20.90;14.13;;;;;;;;;;1493186;39;20043;-61
2021/06/12 02:40:26;;;;;;;20.65;14.82;;;;;;;;;;1493185;39;20294;-60
2021/06/12 02:41:28;;;;;;;21.70;14.75;;;;;;;;;;1493306;39;20027;-59
2021/06/12 02:42:29;;;;;;;20.75;14.40;;;;;;;;;;1493186;39;20375;-59
2021/06/12 02:43:32;;;;;;;20.80;14.60;;;;;;;;;;1493288;39;20060;-59
2021/06/12 02:44:33;;;;;;;21.73;14.98;;;;;;;;;;1493318;39;20044;-60
2021/06/12 02:45:34;;;;;;;21.75;14.82;;;;;;;;;;1493299;39;20040;-59
2021/06/12 02:46:40;;;;;;;19.75;14.20;;;;;;;;;;1492794;39;20055;-61
2021/06/12 02:47:46;;;;;;;22.73;15.10;;;;;;;;;;1493193;39;20028;-61
2021/06/12 02:48:51;;;;;;;22.40;14.85;;;;;;;;;;1493266;39;20072;-61
2021/06/12 02:49:55;;;;;;;19.25;14.07;;;;;;;;;;1493122;39;20066;-60
2021/06/12 02:50:58;;;;;;;19.05;13.75;;;;;;;;;;1493289;39;20107;-60
2021/06/12 02:52:05;;;;;;;20.77;14.27;;;;;;;;;;1493322;39;20028;-60
2021/06/12 02:53:08;;;;;;;23.38;14.23;;;;;;;;;;1493110;39;20031;-61
2021/06/12 02:54:10;;;;;;;18.45;13.68;;;;;;;;;;1493125;39;20028;-60
2021/06/12 02:55:13;;;;;;;25.27;14.70;;;;;;;;;;1493286;39;20039;-60
2021/06/12 02:56:16;;;;;;;19.83;13.80;;;;;;;;;;1493282;39;20032;-60
2021/06/12 02:57:18;;;;;;;19.02;13.80;;;;;;;;;;1493293;39;20067;-60
2021/06/12 02:58:22;;;;;;;19.60;14.13;;;;;;;;;;1493314;39;20131;-61
2021/06/12 02:59:25;;;;;;;20.65;14.57;;;;;;;;;;1493310;39;20030;-60
2021/06/12 03:00:27;;;;;;;19.98;14.18;;;;;;;;;;1493048;39;20387;-60
2021/06/12 03:01:29;;;;;;;19.85;14.32;;;;;;;;;;1493104;39;20032;-60
2021/06/12 03:02:34;;;;;;;23.20;13.80;;;;;;;;;;1493293;39;20032;-61
2021/06/12 03:03:36;;;;;;;20.52;14.82;;;;;;;;;;1492991;39;20089;-60
2021/06/12 03:04:39;;;;;;;21.77;15.10;;;;;;;;;;1493221;39;20088;-59
2021/06/12 03:05:45;;;;;;;23.80;14.45;;;;;;;;;;1493262;39;20035;-61
2021/06/12 03:06:49;;;;;;;19.48;13.50;;;;;;;;;;1493118;39;20506;-60
2021/06/12 03:07:52;;;;;;;19.75;13.00;;;;;;;;;;1493060;39;20024;-60
2021/06/12 03:08:54;;;;;;;21.90;13.82;;;;;;;;;;1493010;39;20034;-60
2021/06/12 03:09:55;;;;;;;19.88;12.07;;;;;;;;;;1493033;39;20028;-60
2021/06/12 03:10:58;;;;;;;20.73;13.68;;;;;;;;;;1493094;39;20035;-60
2021/06/12 03:12:00;;;;;;;23.50;14.43;;;;;;;;;;1493306;39;20031;-60
2021/06/12 03:13:04;;;;;;;21.90;13.90;;;;;;;;;;1493148;39;20031;-62
2021/06/12 03:14:05;;;;;;;21.15;14.55;;;;;;;;;;1493037;39;20031;-59
2021/06/12 03:15:08;;;;;;;19.15;13.27;;;;;;;;;;1493221;39;20034;-59
2021/06/12 03:16:09;;;;;;;17.90;13.30;;;;;;;;;;1493278;39;20068;-59
2021/06/12 03:17:11;;;;;;;22.58;12.75;;;;;;;;;;1493020;39;20392;-60
2021/06/12 03:18:11;;;;;;;20.10;13.27;;;;;;;;;;1492968;39;20024;-61
2021/06/12 03:19:15;;;;;;;18.30;13.10;;;;;;;;;;1493075;39;20048;-60
2021/06/12 03:20:19;;;;;;;16.92;13.13;;;;;;;;;;1493096;39;20400;-59
2021/06/12 03:21:25;;;;;;;19.98;13.13;;;;;;;;;;1493078;39;20032;-59
2021/06/12 03:22:26;;;;;;;18.15;12.98;;;;;;;;;;1493329;39;20028;-59
2021/06/12 03:23:30;;;;;;;22.48;13.43;;;;;;;;;;1493008;39;20035;-59
2021/06/12 03:24:32;;;;;;;18.88;13.52;;;;;;;;;;1492983;39;20032;-59
2021/06/12 03:25:34;;;;;;;18.55;13.20;;;;;;;;;;1493077;39;20303;-60
2021/06/12 03:26:36;;;;;;;19.60;13.38;;;;;;;;;;1493139;39;20024;-59
2021/06/12 03:27:38;;;;;;;15.35;12.30;;;;;;;;;;1493204;39;20032;-59
2021/06/12 03:28:40;;;;;;;22.10;13.43;;;;;;;;;;1492981;39;20115;-60
2021/06/12 03:29:41;;;;;;;17.88;13.63;;;;;;;;;;1493031;39;20388;-59
2021/06/12 03:30:42;;;;;;;20.27;13.30;;;;;;;;;;1493084;39;20291;-59
2021/06/12 03:31:43;;;;;;;19.10;13.80;;;;;;;;;;1493201;39;20036;-59
2021/06/12 03:32:45;;;;;;;18.08;13.25;;;;;;;;;;1493170;39;20028;-60
2021/06/12 03:33:47;;;;;;;17.60;12.93;;;;;;;;;;1493178;39;20039;-61
2021/06/12 03:34:48;;;;;;;24.88;13.68;;;;;;;;;;1493131;39;20035;-59
2021/06/12 03:35:52;;;;;;;18.17;12.73;;;;;;;;;;1493020;39;20031;-61
2021/06/12 03:36:57;;;;;;;17.35;13.30;;;;;;;;;;1493194;39;20089;-61
2021/06/12 03:37:58;;;;;;;18.73;12.43;;;;;;;;;;1493229;39;20097;-61
2021/06/12 03:39:00;;;;;;;18.80;13.30;;;;;;;;;;1492935;39;20055;-59
2021/06/12 03:40:03;;;;;;;20.63;12.98;;;;;;;;;;1493097;39;20028;-59
2021/06/12 03:41:05;;;;;;;19.42;13.55;;;;;;;;;;1493226;39;20093;-61
2021/06/12 03:42:07;;;;;;;17.40;12.77;;;;;;;;;;1493151;39;20031;-59
2021/06/12 03:43:09;;;;;;;19.83;13.98;;;;;;;;;;1492968;39;20125;-61
2021/06/12 03:44:11;;;;;;;20.23;13.25;;;;;;;;;;1493151;39;20044;-61
2021/06/12 03:45:13;;;;;;;19.13;13.32;;;;;;;;;;1493028;39;20302;-59
2021/06/12 03:46:15;;;;;;;17.27;12.45;;;;;;;;;;1492926;39;20082;-59
2021/06/12 03:47:17;;;;;;;20.85;12.63;;;;;;;;;;1493134;39;20039;-59
2021/06/12 03:48:20;;;;;;;20.67;13.43;;;;;;;;;;1493103;39;20032;-59
2021/06/12 03:49:22;;;;;;;27.10;13.63;;;;;;;;;;1493021;39;20039;-59
2021/06/12 03:50:25;;;;;;;27.02;13.93;;;;;;;;;;1492898;39;20027;-60
2021/06/12 03:51:29;;;;;;;19.48;12.90;;;;;;;;;;1492995;39;20036;-60
2021/06/12 03:52:30;;;;;;;19.92;13.15;;;;;;;;;;1493173;39;20024;-59
2021/06/12 03:53:43;;;;;;;18.35;13.18;;;;;;;;;;1492994;39;20299;-59
2021/06/12 03:54:44;;;;;;;20.50;12.98;;;;;;;;;;1493188;39;20113;-61
2021/06/12 03:55:47;;;;;;;19.02;12.95;;;;;;;;;;1493108;39;20031;-60
2021/06/12 03:56:48;;;;;;;20.17;12.60;;;;;;;;;;1493067;39;20028;-59
2021/06/12 03:57:50;;;;;;;21.25;13.55;;;;;;;;;;1492662;39;20041;-59
2021/06/12 03:58:51;;;;;;;16.77;12.63;;;;;;;;;;1492707;39;20028;-60
2021/06/12 03:59:53;;;;;;;21.75;13.43;;;;;;;;;;1493137;39;20028;-60
2021/06/12 04:00:54;;;;;;;19.50;13.40;;;;;;;;;;1492919;39;20085;-59
2021/06/12 04:01:56;;;;;;;17.45;13.60;;;;;;;;;;1493102;39;20038;-60
2021/06/12 04:02:57;;;;;;;19.52;12.70;;;;;;;;;;1492877;39;20031;-59
2021/06/12 04:03:58;;;;;;;19.63;13.43;;;;;;;;;;1493082;39;20023;-59
2021/06/12 04:04:59;;;;;;;19.45;13.25;;;;;;;;;;1492919;39;20412;-59
2021/06/12 04:06:00;;;;;;;20.80;13.88;;;;;;;;;;1493092;39;20036;-59
2021/06/12 04:07:03;;;;;;;16.23;12.85;;;;;;;;;;1492934;39;20500;-59
2021/06/12 04:08:05;;;;;;;18.40;13.15;;;;;;;;;;1493102;39;20032;-59
2021/06/12 04:09:06;;;;;;;19.05;12.82;;;;;;;;;;1492878;39;20044;-59
2021/06/12 04:10:09;;;;;;;21.98;13.93;;;;;;;;;;1493112;39;20031;-60
2021/06/12 04:11:10;;;;;;;19.65;13.55;;;;;;;;;;1493089;39;20028;-60
2021/06/12 04:12:13;;;;;;;21.50;13.45;;;;;;;;;;1492958;39;20024;-59
2021/06/12 04:13:14;;;;;;;20.60;12.75;;;;;;;;;;1492482;39;20035;-60
2021/06/12 04:14:15;;;;;;;19.90;13.25;;;;;;;;;;1492623;39;20039;-60
2021/06/12 04:15:16;;;;;;;19.92;13.32;;;;;;;;;;1493097;39;20023;-61
2021/06/12 04:16:17;;;;;;;17.38;12.75;;;;;;;;;;1493069;39;20034;-59
2021/06/12 04:17:19;;;;;;;20.25;13.25;;;;;;;;;;1492888;39;20028;-59
2021/06/12 04:18:20;;;;;;;16.77;12.63;;;;;;;;;;1492906;39;20036;-61
2021/06/12 04:19:21;;;;;;;18.00;12.88;;;;;;;;;;1492941;39;20036;-60
2021/06/12 04:20:22;;;;;;;18.05;13.25;;;;;;;;;;1492893;39;20036;-59
2021/06/12 04:21:23;;;;;;;16.83;12.50;;;;;;;;;;1492883;39;20054;-59
2021/06/12 04:22:27;;;;;;;19.45;13.05;;;;;;;;;;1492928;39;20387;-59
2021/06/12 04:23:28;;;;;;;20.27;13.90;;;;;;;;;;1493065;39;20032;-59
2021/06/12 04:24:29;;;;;;;19.00;13.07;;;;;;;;;;1492785;39;20108;-59
2021/06/12 04:25:31;;;;;;;20.85;13.25;;;;;;;;;;1493084;39;20090;-59
2021/06/12 04:26:32;;;;;;;20.92;13.20;;;;;;;;;;1492848;39;20434;-59
2021/06/12 04:27:33;;;;;;;18.95;13.75;;;;;;;;;;1492903;39;20388;-59
2021/06/12 04:28:34;;;;;;;17.27;12.82;;;;;;;;;;1492816;39;20031;-59
2021/06/12 04:29:35;;;;;;;18.77;13.15;;;;;;;;;;1492875;39;20051;-59
2021/06/12 04:30:37;;;;;;;19.60;12.82;;;;;;;;;;1492903;39;20113;-59
2021/06/12 04:31:38;;;;;;;17.17;12.50;;;;;;;;;;1492865;39;20373;-59
2021/06/12 04:32:39;;;;;;;16.17;12.32;;;;;;;;;;1493082;39;20028;-60
2021/06/12 04:33:40;;;;;;;18.20;12.88;;;;;;;;;;1493110;39;20035;-59
2021/06/12 04:34:41;;;;;;;17.13;12.57;;;;;;;;;;1493028;39;20023;-60
2021/06/12 04:35:42;;;;;;;17.88;12.48;;;;;;;;;;1493041;39;20024;-61
2021/06/12 04:36:43;;;;;;;17.15;12.45;;;;;;;;;;1493021;39;20036;-59
2021/06/12 04:37:46;;;;;;;17.95;12.63;;;;;;;;;;1492990;39;20031;-60
2021/06/12 04:38:47;;;;;;;17.02;11.93;;;;;;;;;;1493007;39;20036;-61
2021/06/12 04:39:48;;;;;;;16.45;11.93;;;;;;;;;;1493012;39;20054;-59
2021/06/12 04:40:49;;;;;;;19.05;12.10;;;;;;;;;;1492882;39;20036;-60
2021/06/12 04:41:50;;;;;;;17.45;12.57;;;;;;;;;;1492979;39;20023;-59
2021/06/12 04:42:52;;;;;;;19.38;13.00;;;;;;;;;;1492845;39;20402;-59
2021/06/12 04:43:53;;;;;;;17.30;11.50;;;;;;;;;;1492745;39;20085;-62
2021/06/12 04:44:54;;;;;;;20.08;12.70;;;;;;;;;;1493010;39;20024;-60
2021/06/12 04:45:55;;;;;;;17.60;11.88;;;;;;;;;;1492932;39;20027;-59
2021/06/12 04:46:56;;;;;;;17.33;12.65;;;;;;;;;;1492794;39;20024;-59
2021/06/12 04:47:57;;;;;;;16.38;12.00;;;;;;;;;;1492976;39;20116;-59
2021/06/12 04:48:58;;;;;;;17.20;11.90;;;;;;;;;;1492692;39;20035;-59
2021/06/12 04:50:00;;;;;;;15.80;12.25;;;;;;;;;;1493004;39;20035;-59
2021/06/12 04:51:02;;;;;;;16.90;12.25;;;;;;;;;;1492757;39;20027;-59
2021/06/12 04:52:04;;;;;;;19.00;12.15;;;;;;;;;;1492968;39;20035;-59
2021/06/12 04:53:08;;;;;;;18.13;11.93;;;;;;;;;;1492834;39;20402;-60
2021/06/12 04:54:09;;;;;;;16.15;11.30;;;;;;;;;;1492881;39;20024;-62
2021/06/12 04:55:12;;;;;;;16.10;11.38;;;;;;;;;;1492826;39;20032;-59
2021/06/12 04:56:13;;;;;;;18.88;12.10;;;;;;;;;;1492949;39;20035;-59
2021/06/12 04:57:14;;;;;;;16.02;11.10;;;;;;;;;;1492799;39;20128;-59
2021/06/12 04:58:15;;;;;;;16.00;11.50;;;;;;;;;;1493025;39;20371;-60
2021/06/12 04:59:16;;;;;;;14.95;11.10;;;;;;;;;;1492908;39;20038;-59
2021/06/12 05:00:18;;;;;;;13.57;10.90;;;;;;;;;;1492954;39;20027;-59
2021/06/12 05:01:19;;;;;;;16.30;11.45;;;;;;;;;;1492791;39;20031;-59
2021/06/12 05:02:20;;;;;;;15.43;11.35;;;;;;;;;;1493062;39;20024;-59
2021/06/12 05:03:21;;;;;;;17.27;11.43;;;;;;;;;;1492742;39;20384;-59
2021/06/12 05:04:24;;;;;;;16.08;11.75;;;;;;;;;;1492721;39;20411;-60
2021/06/12 05:05:24;;;;;;;16.40;12.30;;;;;;;;;;1492933;39;20070;-60
2021/06/12 05:06:26;;;;;;;15.80;11.43;;;;;;;;;;1492740;39;20032;-59
2021/06/12 05:07:27;;;;;;;14.90;11.32;;;;;;;;;;1492886;39;20031;-59
2021/06/12 05:08:29;;;;;;;16.88;11.77;;;;;;;;;;1492871;39;20028;-61
2021/06/12 05:09:30;;;;;;;12.95;10.60;;;;;;;;;;1492538;39;20027;-59
2021/06/12 05:10:31;;;;;;;17.60;11.15;;;;;;;;;;1493009;39;20031;-59
2021/06/12 05:11:32;;;;;;;14.90;10.88;;;;;;;;;;1492827;39;20353;-61
2021/06/12 05:12:34;;;;;;;13.57;11.10;;;;;;;;;;1492974;39;20035;-61
2021/06/12 05:13:35;;;;;;;13.60;10.77;;;;;;;;;;1492925;39;20032;-59
2021/06/12 05:14:36;;;;;;;15.23;10.55;;;;;;;;;;1492898;39;20050;-59
2021/06/12 05:15:37;;;;;;;16.17;10.88;;;;;;;;;;1492672;39;20024;-62
2021/06/12 05:16:39;;;;;;;17.33;11.90;;;;;;;;;;1492725;39;20280;-60
2021/06/12 05:17:41;;;;;;;14.35;11.02;;;;;;;;;;1492797;39;20028;-62
2021/06/12 05:18:43;;;;;;;13.57;11.05;;;;;;;;;;1492129;39;20079;-62
2021/06/12 05:19:44;;;;;;;17.80;11.07;;;;;;;;;;1492295;39;20040;-62
2021/06/12 05:20:46;;;;;;;16.75;10.80;;;;;;;;;;1492949;39;20063;-60
2021/06/12 05:21:47;;;;;;;13.38;10.98;;;;;;;;;;1492887;39;20035;-63
2021/06/12 05:22:49;;;;;;;16.45;10.90;;;;;;;;;;1492773;39;20085;-60
2021/06/12 05:23:52;;;;;;;14.80;10.45;;;;;;;;;;1492810;39;20032;-60
2021/06/12 05:24:54;;;;;;;14.10;10.98;;;;;;;;;;1492787;39;20024;-60
2021/06/12 05:25:55;;;;;;;17.55;10.82;;;;;;;;;;1492675;39;20408;-63
2021/06/12 05:26:56;;;;;;;13.98;10.55;;;;;;;;;;1492811;39;20027;-60
2021/06/12 05:27:57;;;;;;;15.00;10.77;;;;;;;;;;1492766;39;20384;-59
2021/06/12 05:28:59;;;;;;;13.85;10.90;;;;;;;;;;1492806;39;20046;-60
2021/06/12 05:29:59;;;;;;;15.25;10.40;;;;;;;;;;1492203;39;20085;-60
2021/06/12 05:31:01;;;;;;;14.50;10.57;;;;;;;;;;1492342;39;20055;-60
2021/06/12 05:32:03;;;;;;;14.23;10.30;;;;;;;;;;1492784;39;20028;-60
2021/06/12 05:33:04;;;;;;;12.75;10.07;;;;;;;;;;1492682;39;20035;-60
2021/06/12 05:34:05;;;;;;;12.48;10.23;;;;;;;;;;1492687;39;20028;-60
2021/06/12 05:35:07;;;;;;;13.05;10.57;;;;;;;;;;1492241;39;20093;-60
2021/06/12 05:36:09;;;;;;;13.65;10.25;;;;;;;;;;1492343;39;20036;-62
2021/06/12 05:37:12;;;;;;;11.82;10.20;;;;;;;;;;1492612;39;20299;-60
2021/06/12 05:38:14;;;;;;;13.73;10.45;;;;;;;;;;1492821;39;20047;-62
2021/06/12 05:39:16;;;;;;;14.40;10.63;;;;;;;;;;1492743;39;20038;-60
2021/06/12 05:40:17;;;;;;;17.10;10.68;;;;;;;;;;1492706;39;20391;-60
2021/06/12 05:41:18;;;;;;;15.02;10.63;;;;;;;;;;1492825;39;20028;-61
2021/06/12 05:42:19;;;;;;;14.07;9.65;;;;;;;;;;1492768;39;20032;-60
2021/06/12 05:43:20;;;;;;;13.38;10.07;;;;;;;;;;1492631;39;20395;-60
2021/06/12 05:44:22;;;;;;;14.02;10.43;;;;;;;;;;1492763;39;20036;-60
2021/06/12 05:45:22;;;;;;;15.13;11.07;;;;;;;;;;1492647;39;20313;-60
2021/06/12 05:46:24;;;;;;;12.85;10.48;;;;;;;;;;1492566;39;20024;-61
2021/06/12 05:47:25;;;;;;;12.77;10.52;;;;;;;;;;1492739;39;20145;-60
2021/06/12 05:48:26;;;;;;;16.05;10.68;;;;;;;;;;1492760;39;20033;-60
2021/06/12 05:49:27;;;;;;;14.50;10.68;;;;;;;;;;1492593;39;20032;-60
2021/06/12 05:50:28;;;;;;;12.07;10.27;;;;;;;;;;1492583;39;20031;-60
2021/06/12 05:51:29;;;;;;;13.57;10.55;;;;;;;;;;1492648;39;20031;-61
2021/06/12 05:52:31;;;;;;;11.35;9.57;;;;;;;;;;1492584;39;20280;-60
2021/06/12 05:53:31;;;;;;;13.65;10.18;;;;;;;;;;1492876;39;20032;-60
2021/06/12 05:54:34;;;;;;;11.25;9.50;;;;;;;;;;1492800;39;20295;-61
2021/06/12 05:55:35;;;;;;;14.50;10.57;;;;;;;;;;1492564;39;20031;-62
2021/06/12 05:56:36;;;;;;;12.98;10.45;;;;;;;;;;1492588;39;20039;-61
2021/06/12 05:57:37;;;;;;;13.82;10.30;;;;;;;;;;1492567;39;20031;-61
2021/06/12 05:58:38;;;;;;;13.23;10.60;;;;;;;;;;1492501;39;20036;-61
2021/06/12 05:59:39;;;;;;;12.55;10.18;;;;;;;;;;1492561;39;20035;-60
2021/06/12 06:00:41;;;;;;;12.73;10.40;;;;;;;;;;1492563;39;20031;-62
2021/06/12 06:01:41;;;;;;;15.20;10.45;;;;;;;;;;1492592;39;20307;-61
2021/06/12 06:02:43;;;;;;;14.90;10.65;;;;;;;;;;1492768;39;20035;-60
2021/06/12 06:03:44;;;;;;;14.07;10.77;;;;;;;;;;1492582;39;20028;-62